sensor_id;sensor_type;location;lat;lon;timestamp;temperature;humidity
23120;DHT22;11729;50.836;4.330;2023-07-13T00:00:12;17.90;99.90
23120;DHT22;11729;50.836;4.330;2023-07-13T00:02:41;17.80;99.90
23120;DHT22;11729;50.836;4.330;2023-07-13T00:05:07;17.80;99.90
23120;DHT22;11729;50.836;4.330;2023-07-13T00:07:33;17.80;99.90
23120;DHT22;11729;50.836;4.330;2023-07-13T00:09:59;17.80;99.90
23120;DHT22;11729;50.836;4.330;2023-07-13T00:12:28;17.80;99.90
23120;DHT22;11729;50.836;4.330;2023-07-13T00:14:56;17.80;99.90
23120;DHT22;11729;50.836;4.330;2023-07-13T00:17:23;17.80;99.90
23120;DHT22;11729;50.836;4.330;2023-07-13T00:19:49;17.80;99.90
23120;DHT22;11729;50.836;4.330;2023-07-13T00:22:14;17.70;99.90
23120;DHT22;11729;50.836;4.330;2023-07-13T00:24:40;17.70;99.90
23120;DHT22;11729;50.836;4.330;2023-07-13T00:27:11;17.70;99.90
23120;DHT22;11729;50.836;4.330;2023-07-13T00:29:37;17.70;99.90
23120;DHT22;11729;50.836;4.330;2023-07-13T00:32:04;17.70;99.90
23120;DHT22;11729;50.836;4.330;2023-07-13T00:34:30;17.70;99.90
23120;DHT22;11729;50.836;4.330;2023-07-13T00:36:56;17.60;99.90
23120;DHT22;11729;50.836;4.330;2023-07-13T00:39:22;17.60;99.90
23120;DHT22;11729;50.836;4.330;2023-07-13T00:41:48;17.60;99.90
23120;DHT22;11729;50.836;4.330;2023-07-13T00:44:14;17.60;99.90
23120;DHT22;11729;50.836;4.330;2023-07-13T00:46:41;17.50;99.90
23120;DHT22;11729;50.836;4.330;2023-07-13T00:49:09;17.50;99.90
23120;DHT22;11729;50.836;4.330;2023-07-13T00:54:14;17.40;99.90
23120;DHT22;11729;50.836;4.330;2023-07-13T00:56:41;17.50;99.90
23120;DHT22;11729;50.836;4.330;2023-07-13T00:59:10;17.50;99.90
23120;DHT22;11729;50.836;4.330;2023-07-13T01:01:37;17.40;99.90
23120;DHT22;11729;50.836;4.330;2023-07-13T01:04:03;17.40;99.90
23120;DHT22;11729;50.836;4.330;2023-07-13T01:06:29;17.30;99.90
23120;DHT22;11729;50.836;4.330;2023-07-13T01:08:56;17.40;99.90
23120;DHT22;11729;50.836;4.330;2023-07-13T01:11:23;17.40;99.90
23120;DHT22;11729;50.836;4.330;2023-07-13T01:13:49;17.30;99.90
23120;DHT22;11729;50.836;4.330;2023-07-13T01:16:19;17.30;99.90
23120;DHT22;11729;50.836;4.330;2023-07-13T01:18:47;17.30;99.90
23120;DHT22;11729;50.836;4.330;2023-07-13T01:21:13;17.20;99.90
23120;DHT22;11729;50.836;4.330;2023-07-13T01:23:38;17.20;99.90
23120;DHT22;11729;50.836;4.330;2023-07-13T01:26:04;17.20;99.90
23120;DHT22;11729;50.836;4.330;2023-07-13T01:28:30;17.20;99.90
23120;DHT22;11729;50.836;4.330;2023-07-13T01:30:58;17.20;99.90
23120;DHT22;11729;50.836;4.330;2023-07-13T01:33:25;17.20;99.90
23120;DHT22;11729;50.836;4.330;2023-07-13T01:35:50;17.20;99.90
23120;DHT22;11729;50.836;4.330;2023-07-13T01:38:19;17.20;99.90
23120;DHT22;11729;50.836;4.330;2023-07-13T01:40:45;17.20;99.90
23120;DHT22;11729;50.836;4.330;2023-07-13T01:43:10;17.10;99.90
23120;DHT22;11729;50.836;4.330;2023-07-13T01:45:36;17.10;99.90
23120;DHT22;11729;50.836;4.330;2023-07-13T01:48:02;17.10;99.90
23120;DHT22;11729;50.836;4.330;2023-07-13T01:50:28;17.00;99.90
23120;DHT22;11729;50.836;4.330;2023-07-13T01:52:53;17.00;99.90
23120;DHT22;11729;50.836;4.330;2023-07-13T01:55:20;17.00;99.90
23120;DHT22;11729;50.836;4.330;2023-07-13T01:57:46;17.00;99.90
23120;DHT22;11729;50.836;4.330;2023-07-13T02:00:13;17.00;99.90
23120;DHT22;11729;50.836;4.330;2023-07-13T02:02:39;17.00;99.90
23120;DHT22;11729;50.836;4.330;2023-07-13T02:05:05;17.00;99.90
23120;DHT22;11729;50.836;4.330;2023-07-13T02:07:31;17.00;99.90
23120;DHT22;11729;50.836;4.330;2023-07-13T02:09:57;17.00;99.90
23120;DHT22;11729;50.836;4.330;2023-07-13T02:12:23;17.00;99.90
23120;DHT22;11729;50.836;4.330;2023-07-13T02:14:48;16.90;99.90
23120;DHT22;11729;50.836;4.330;2023-07-13T02:17:14;16.90;99.90
23120;DHT22;11729;50.836;4.330;2023-07-13T02:19:40;17.00;99.90
23120;DHT22;11729;50.836;4.330;2023-07-13T02:22:05;16.90;99.90
23120;DHT22;11729;50.836;4.330;2023-07-13T02:24:31;16.90;99.90
23120;DHT22;11729;50.836;4.330;2023-07-13T02:26:57;16.80;99.90
23120;DHT22;11729;50.836;4.330;2023-07-13T02:29:23;16.70;99.90
23120;DHT22;11729;50.836;4.330;2023-07-13T02:31:48;16.60;99.90
23120;DHT22;11729;50.836;4.330;2023-07-13T02:34:14;16.70;99.90
23120;DHT22;11729;50.836;4.330;2023-07-13T02:36:39;16.70;99.90
23120;DHT22;11729;50.836;4.330;2023-07-13T02:39:06;16.70;99.90
23120;DHT22;11729;50.836;4.330;2023-07-13T02:41:32;16.70;99.90
23120;DHT22;11729;50.836;4.330;2023-07-13T02:43:58;16.60;99.90
23120;DHT22;11729;50.836;4.330;2023-07-13T02:46:36;16.60;99.90
23120;DHT22;11729;50.836;4.330;2023-07-13T02:49:03;16.60;99.90
23120;DHT22;11729;50.836;4.330;2023-07-13T02:51:29;16.60;99.90
23120;DHT22;11729;50.836;4.330;2023-07-13T02:53:54;16.50;99.90
23120;DHT22;11729;50.836;4.330;2023-07-13T02:56:25;16.50;99.90
23120;DHT22;11729;50.836;4.330;2023-07-13T02:58:51;16.50;99.90
23120;DHT22;11729;50.836;4.330;2023-07-13T03:01:17;16.40;99.90
23120;DHT22;11729;50.836;4.330;2023-07-13T03:03:45;16.50;99.90
23120;DHT22;11729;50.836;4.330;2023-07-13T03:06:12;16.50;99.90
23120;DHT22;11729;50.836;4.330;2023-07-13T03:08:38;16.50;99.90
23120;DHT22;11729;50.836;4.330;2023-07-13T03:11:07;16.50;99.90
23120;DHT22;11729;50.836;4.330;2023-07-13T03:13:34;16.50;99.90
23120;DHT22;11729;50.836;4.330;2023-07-13T03:16:00;16.60;99.90
23120;DHT22;11729;50.836;4.330;2023-07-13T03:18:27;16.60;99.90
23120;DHT22;11729;50.836;4.330;2023-07-13T03:20:53;16.60;99.90
23120;DHT22;11729;50.836;4.330;2023-07-13T03:23:20;16.50;99.90
23120;DHT22;11729;50.836;4.330;2023-07-13T03:25:46;16.50;99.90
23120;DHT22;11729;50.836;4.330;2023-07-13T03:28:12;16.50;99.90
23120;DHT22;11729;50.836;4.330;2023-07-13T03:30:38;16.50;99.90
23120;DHT22;11729;50.836;4.330;2023-07-13T03:33:04;16.60;99.90
23120;DHT22;11729;50.836;4.330;2023-07-13T03:35:30;16.60;99.90
23120;DHT22;11729;50.836;4.330;2023-07-13T03:37:55;16.60;99.90
23120;DHT22;11729;50.836;4.330;2023-07-13T03:40:22;16.50;99.90
23120;DHT22;11729;50.836;4.330;2023-07-13T03:42:49;16.40;99.90
23120;DHT22;11729;50.836;4.330;2023-07-13T03:45:15;16.40;99.90
23120;DHT22;11729;50.836;4.330;2023-07-13T03:47:41;16.50;99.90
23120;DHT22;11729;50.836;4.330;2023-07-13T03:50:07;16.60;99.90
23120;DHT22;11729;50.836;4.330;2023-07-13T03:52:33;16.70;99.90
23120;DHT22;11729;50.836;4.330;2023-07-13T03:54:58;16.80;99.90
23120;DHT22;11729;50.836;4.330;2023-07-13T03:57:24;16.80;99.90
23120;DHT22;11729;50.836;4.330;2023-07-13T03:59:49;16.80;99.90
23120;DHT22;11729;50.836;4.330;2023-07-13T04:02:15;16.80;99.90
23120;DHT22;11729;50.836;4.330;2023-07-13T04:04:41;16.90;99.90
23120;DHT22;11729;50.836;4.330;2023-07-13T04:07:08;16.90;99.90
23120;DHT22;11729;50.836;4.330;2023-07-13T04:09:34;17.00;99.90
23120;DHT22;11729;50.836;4.330;2023-07-13T04:12:00;17.10;99.90
23120;DHT22;11729;50.836;4.330;2023-07-13T04:14:25;17.00;99.90
23120;DHT22;11729;50.836;4.330;2023-07-13T04:16:51;17.00;99.90
23120;DHT22;11729;50.836;4.330;2023-07-13T04:19:17;17.00;99.90
23120;DHT22;11729;50.836;4.330;2023-07-13T04:21:43;17.20;99.90
23120;DHT22;11729;50.836;4.330;2023-07-13T04:24:08;17.20;99.90
23120;DHT22;11729;50.836;4.330;2023-07-13T04:26:34;17.30;99.90
23120;DHT22;11729;50.836;4.330;2023-07-13T04:29:06;17.40;99.90
23120;DHT22;11729;50.836;4.330;2023-07-13T04:31:32;17.40;99.90
23120;DHT22;11729;50.836;4.330;2023-07-13T04:33:58;17.40;99.90
23120;DHT22;11729;50.836;4.330;2023-07-13T04:36:24;17.40;99.90
23120;DHT22;11729;50.836;4.330;2023-07-13T04:38:52;17.50;99.90
23120;DHT22;11729;50.836;4.330;2023-07-13T04:41:20;17.40;99.90
23120;DHT22;11729;50.836;4.330;2023-07-13T04:43:46;17.30;99.90
23120;DHT22;11729;50.836;4.330;2023-07-13T04:46:13;17.40;99.90
23120;DHT22;11729;50.836;4.330;2023-07-13T04:48:40;17.40;99.90
23120;DHT22;11729;50.836;4.330;2023-07-13T04:51:06;17.40;99.90
23120;DHT22;11729;50.836;4.330;2023-07-13T04:53:32;17.50;99.90
23120;DHT22;11729;50.836;4.330;2023-07-13T04:56:00;17.60;99.90
23120;DHT22;11729;50.836;4.330;2023-07-13T04:58:26;17.70;99.90
23120;DHT22;11729;50.836;4.330;2023-07-13T05:00:53;17.70;99.90
23120;DHT22;11729;50.836;4.330;2023-07-13T05:03:19;17.70;99.90
23120;DHT22;11729;50.836;4.330;2023-07-13T05:05:57;17.80;99.90
23120;DHT22;11729;50.836;4.330;2023-07-13T05:08:23;17.80;99.90
23120;DHT22;11729;50.836;4.330;2023-07-13T05:10:50;17.70;99.90
23120;DHT22;11729;50.836;4.330;2023-07-13T05:13:16;17.70;99.90
23120;DHT22;11729;50.836;4.330;2023-07-13T05:15:41;17.60;99.90
23120;DHT22;11729;50.836;4.330;2023-07-13T05:18:07;17.60;99.90
23120;DHT22;11729;50.836;4.330;2023-07-13T05:20:33;17.70;99.90
23120;DHT22;11729;50.836;4.330;2023-07-13T05:22:58;17.80;99.90
23120;DHT22;11729;50.836;4.330;2023-07-13T05:25:24;17.90;99.90
23120;DHT22;11729;50.836;4.330;2023-07-13T05:27:50;18.10;99.90
23120;DHT22;11729;50.836;4.330;2023-07-13T05:30:15;18.20;99.90
23120;DHT22;11729;50.836;4.330;2023-07-13T05:32:41;18.20;99.90
23120;DHT22;11729;50.836;4.330;2023-07-13T05:35:07;18.30;99.90
23120;DHT22;11729;50.836;4.330;2023-07-13T05:37:33;18.40;99.90
23120;DHT22;11729;50.836;4.330;2023-07-13T05:39:59;18.40;99.90
23120;DHT22;11729;50.836;4.330;2023-07-13T05:42:24;18.50;99.90
23120;DHT22;11729;50.836;4.330;2023-07-13T05:44:50;18.50;99.90
23120;DHT22;11729;50.836;4.330;2023-07-13T05:47:16;18.60;99.90
23120;DHT22;11729;50.836;4.330;2023-07-13T05:49:42;18.60;99.90
23120;DHT22;11729;50.836;4.330;2023-07-13T05:52:08;18.80;99.90
23120;DHT22;11729;50.836;4.330;2023-07-13T05:54:33;18.70;99.90
23120;DHT22;11729;50.836;4.330;2023-07-13T05:56:59;18.80;99.90
23120;DHT22;11729;50.836;4.330;2023-07-13T05:59:24;18.80;99.90
23120;DHT22;11729;50.836;4.330;2023-07-13T06:01:51;18.80;99.90
23120;DHT22;11729;50.836;4.330;2023-07-13T06:04:18;18.90;99.90
23120;DHT22;11729;50.836;4.330;2023-07-13T06:06:43;19.00;99.90
23120;DHT22;11729;50.836;4.330;2023-07-13T06:09:09;19.10;99.90
23120;DHT22;11729;50.836;4.330;2023-07-13T06:11:34;19.10;99.90
23120;DHT22;11729;50.836;4.330;2023-07-13T06:14:00;19.20;99.90
23120;DHT22;11729;50.836;4.330;2023-07-13T06:16:26;19.40;99.90
23120;DHT22;11729;50.836;4.330;2023-07-13T06:18:51;19.50;99.90
23120;DHT22;11729;50.836;4.330;2023-07-13T06:21:19;19.30;99.90
23120;DHT22;11729;50.836;4.330;2023-07-13T06:23:46;19.40;99.90
23120;DHT22;11729;50.836;4.330;2023-07-13T06:26:16;19.30;99.90
23120;DHT22;11729;50.836;4.330;2023-07-13T06:28:42;19.40;99.90
23120;DHT22;11729;50.836;4.330;2023-07-13T06:31:09;19.40;99.90
23120;DHT22;11729;50.836;4.330;2023-07-13T06:33:36;19.50;99.90
23120;DHT22;11729;50.836;4.330;2023-07-13T06:36:03;19.50;99.90
23120;DHT22;11729;50.836;4.330;2023-07-13T06:38:29;19.70;99.90
23120;DHT22;11729;50.836;4.330;2023-07-13T06:40:55;19.90;99.90
23120;DHT22;11729;50.836;4.330;2023-07-13T06:43:21;20.20;99.90
23120;DHT22;11729;50.836;4.330;2023-07-13T06:45:49;20.40;99.90
23120;DHT22;11729;50.836;4.330;2023-07-13T06:48:16;20.60;99.90
23120;DHT22;11729;50.836;4.330;2023-07-13T06:50:42;20.90;99.90
23120;DHT22;11729;50.836;4.330;2023-07-13T06:53:09;20.90;99.90
23120;DHT22;11729;50.836;4.330;2023-07-13T06:55:35;20.90;99.90
23120;DHT22;11729;50.836;4.330;2023-07-13T06:58:01;21.00;99.90
23120;DHT22;11729;50.836;4.330;2023-07-13T07:00:27;21.30;99.90
23120;DHT22;11729;50.836;4.330;2023-07-13T07:02:52;21.60;99.90
23120;DHT22;11729;50.836;4.330;2023-07-13T07:05:18;21.70;99.90
23120;DHT22;11729;50.836;4.330;2023-07-13T07:07:47;21.50;99.90
23120;DHT22;11729;50.836;4.330;2023-07-13T07:10:12;21.50;99.90
23120;DHT22;11729;50.836;4.330;2023-07-13T07:12:38;21.70;99.90
23120;DHT22;11729;50.836;4.330;2023-07-13T07:15:04;21.80;99.90
23120;DHT22;11729;50.836;4.330;2023-07-13T07:17:29;22.20;99.90
23120;DHT22;11729;50.836;4.330;2023-07-13T07:19:55;22.60;99.90
23120;DHT22;11729;50.836;4.330;2023-07-13T07:22:21;23.20;99.90
23120;DHT22;11729;50.836;4.330;2023-07-13T07:24:47;23.50;99.90
23120;DHT22;11729;50.836;4.330;2023-07-13T07:27:13;23.50;99.90
23120;DHT22;11729;50.836;4.330;2023-07-13T07:29:38;24.10;99.90
23120;DHT22;11729;50.836;4.330;2023-07-13T07:32:04;24.40;99.90
23120;DHT22;11729;50.836;4.330;2023-07-13T07:34:30;25.00;99.90
23120;DHT22;11729;50.836;4.330;2023-07-13T07:37:00;25.50;99.90
23120;DHT22;11729;50.836;4.330;2023-07-13T07:39:26;25.50;99.90
23120;DHT22;11729;50.836;4.330;2023-07-13T07:41:52;26.10;99.90
23120;DHT22;11729;50.836;4.330;2023-07-13T07:44:18;26.20;99.90
23120;DHT22;11729;50.836;4.330;2023-07-13T07:46:43;26.60;99.90
23120;DHT22;11729;50.836;4.330;2023-07-13T07:49:09;27.00;99.90
23120;DHT22;11729;50.836;4.330;2023-07-13T07:51:36;27.60;99.90
23120;DHT22;11729;50.836;4.330;2023-07-13T07:54:02;28.70;99.90
23120;DHT22;11729;50.836;4.330;2023-07-13T07:56:28;29.80;97.60
23120;DHT22;11729;50.836;4.330;2023-07-13T07:58:55;30.40;95.50
23120;DHT22;11729;50.836;4.330;2023-07-13T08:01:21;30.70;92.80
23120;DHT22;11729;50.836;4.330;2023-07-13T08:03:47;30.60;92.70
23120;DHT22;11729;50.836;4.330;2023-07-13T08:06:12;30.90;91.30
23120;DHT22;11729;50.836;4.330;2023-07-13T08:08:38;30.60;91.90
23120;DHT22;11729;50.836;4.330;2023-07-13T08:11:06;30.10;91.90
23120;DHT22;11729;50.836;4.330;2023-07-13T08:13:32;29.30;93.30
23120;DHT22;11729;50.836;4.330;2023-07-13T08:15:58;29.60;92.90
23120;DHT22;11729;50.836;4.330;2023-07-13T08:18:24;29.20;93.00
23120;DHT22;11729;50.836;4.330;2023-07-13T08:20:50;28.60;95.10
23120;DHT22;11729;50.836;4.330;2023-07-13T08:23:17;29.00;94.60
23120;DHT22;11729;50.836;4.330;2023-07-13T08:25:43;28.70;94.50
23120;DHT22;11729;50.836;4.330;2023-07-13T08:28:15;28.20;94.80
23120;DHT22;11729;50.836;4.330;2023-07-13T08:30:41;27.80;95.80
23120;DHT22;11729;50.836;4.330;2023-07-13T08:33:06;27.50;96.60
23120;DHT22;11729;50.836;4.330;2023-07-13T08:35:32;26.60;98.30
23120;DHT22;11729;50.836;4.330;2023-07-13T08:37:58;26.10;99.60
23120;DHT22;11729;50.836;4.330;2023-07-13T08:40:25;26.20;99.90
23120;DHT22;11729;50.836;4.330;2023-07-13T08:42:58;26.60;99.90
23120;DHT22;11729;50.836;4.330;2023-07-13T08:45:43;27.30;99.90
23120;DHT22;11729;50.836;4.330;2023-07-13T08:50:58;28.80;96.00
23120;DHT22;11729;50.836;4.330;2023-07-13T08:53:33;28.70;95.40
23120;DHT22;11729;50.836;4.330;2023-07-13T08:56:00;29.70;94.50
23120;DHT22;11729;50.836;4.330;2023-07-13T08:58:27;30.50;91.30
23120;DHT22;11729;50.836;4.330;2023-07-13T09:01:33;31.80;89.40
23120;DHT22;11729;50.836;4.330;2023-07-13T09:04:14;32.10;84.40
23120;DHT22;11729;50.836;4.330;2023-07-13T09:07:27;33.10;81.30
23120;DHT22;11729;50.836;4.330;2023-07-13T09:10:15;33.70;75.80
23120;DHT22;11729;50.836;4.330;2023-07-13T09:13:09;34.10;73.20
23120;DHT22;11729;50.836;4.330;2023-07-13T09:15:41;34.30;70.70
23120;DHT22;11729;50.836;4.330;2023-07-13T09:18:59;34.50;69.60
23120;DHT22;11729;50.836;4.330;2023-07-13T09:21:05;34.30;70.90
23120;DHT22;11729;50.836;4.330;2023-07-13T09:23:34;34.30;68.30
23120;DHT22;11729;50.836;4.330;2023-07-13T09:26:19;34.50;66.00
23120;DHT22;11729;50.836;4.330;2023-07-13T09:28:48;34.30;66.70
23120;DHT22;11729;50.836;4.330;2023-07-13T09:31:30;34.30;66.40
23120;DHT22;11729;50.836;4.330;2023-07-13T09:34:00;33.60;66.40
23120;DHT22;11729;50.836;4.330;2023-07-13T09:36:32;32.80;67.60
23120;DHT22;11729;50.836;4.330;2023-07-13T09:46:27;29.30;81.30
23120;DHT22;11729;50.836;4.330;2023-07-13T09:48:55;29.40;83.80
23120;DHT22;11729;50.836;4.330;2023-07-13T09:51:21;30.30;83.50
23120;DHT22;11729;50.836;4.330;2023-07-13T09:53:47;30.80;78.20
23120;DHT22;11729;50.836;4.330;2023-07-13T09:56:25;30.80;78.00
23120;DHT22;11729;50.836;4.330;2023-07-13T09:58:51;30.70;77.40
23120;DHT22;11729;50.836;4.330;2023-07-13T10:01:32;30.70;76.50
23120;DHT22;11729;50.836;4.330;2023-07-13T10:03:59;30.80;77.30
23120;DHT22;11729;50.836;4.330;2023-07-13T10:06:25;31.40;76.60
23120;DHT22;11729;50.836;4.330;2023-07-13T10:08:56;31.30;75.40
23120;DHT22;11729;50.836;4.330;2023-07-13T10:11:26;32.10;73.80
23120;DHT22;11729;50.836;4.330;2023-07-13T10:13:57;32.70;70.30
23120;DHT22;11729;50.836;4.330;2023-07-13T10:16:28;33.10;67.50
23120;DHT22;11729;50.836;4.330;2023-07-13T10:19:10;32.60;68.00
23120;DHT22;11729;50.836;4.330;2023-07-13T10:21:52;31.90;68.80
23120;DHT22;11729;50.836;4.330;2023-07-13T10:24:24;31.60;70.60
23120;DHT22;11729;50.836;4.330;2023-07-13T10:27:21;30.80;72.10
23120;DHT22;11729;50.836;4.330;2023-07-13T10:30:09;30.40;73.00
23120;DHT22;11729;50.836;4.330;2023-07-13T10:32:38;30.50;74.80
23120;DHT22;11729;50.836;4.330;2023-07-13T10:35:03;30.60;76.30
23120;DHT22;11729;50.836;4.330;2023-07-13T10:40:18;31.90;68.90
23120;DHT22;11729;50.836;4.330;2023-07-13T10:42:47;31.90;68.80
23120;DHT22;11729;50.836;4.330;2023-07-13T10:45:23;31.00;70.30
23120;DHT22;11729;50.836;4.330;2023-07-13T10:47:51;30.30;72.20
23120;DHT22;11729;50.836;4.330;2023-07-13T10:50:23;29.70;74.80
23120;DHT22;11729;50.836;4.330;2023-07-13T10:52:54;29.10;77.60
23120;DHT22;11729;50.836;4.330;2023-07-13T10:55:35;28.90;79.50
23120;DHT22;11729;50.836;4.330;2023-07-13T10:58:23;29.20;80.90
23120;DHT22;11729;50.836;4.330;2023-07-13T11:06:31;30.00;78.70
23120;DHT22;11729;50.836;4.330;2023-07-13T11:09:28;30.70;77.50
23120;DHT22;11729;50.836;4.330;2023-07-13T11:11:59;31.20;74.30
23120;DHT22;11729;50.836;4.330;2023-07-13T11:14:30;31.50;71.40
23120;DHT22;11729;50.836;4.330;2023-07-13T11:22:49;30.40;73.20
23120;DHT22;11729;50.836;4.330;2023-07-13T11:25:25;30.30;75.30
23120;DHT22;11729;50.836;4.330;2023-07-13T11:30:49;31.20;72.40
23120;DHT22;11729;50.836;4.330;2023-07-13T11:36:13;30.60;72.90
23120;DHT22;11729;50.836;4.330;2023-07-13T11:38:41;30.00;75.00
23120;DHT22;11729;50.836;4.330;2023-07-13T11:46:36;27.60;81.00
23120;DHT22;11729;50.836;4.330;2023-07-13T11:49:05;27.00;83.00
23120;DHT22;11729;50.836;4.330;2023-07-13T11:51:34;26.70;84.60
23120;DHT22;11729;50.836;4.330;2023-07-13T11:54:06;26.10;87.90
23120;DHT22;11729;50.836;4.330;2023-07-13T11:56:39;25.70;90.30
23120;DHT22;11729;50.836;4.330;2023-07-13T11:59:10;25.50;91.60
23120;DHT22;11729;50.836;4.330;2023-07-13T12:01:43;25.40;92.10
23120;DHT22;11729;50.836;4.330;2023-07-13T12:04:21;25.00;92.80
23120;DHT22;11729;50.836;4.330;2023-07-13T12:06:56;24.50;94.30
23120;DHT22;11729;50.836;4.330;2023-07-13T12:09:27;24.50;95.30
23120;DHT22;11729;50.836;4.330;2023-07-13T12:11:53;24.50;96.60
23120;DHT22;11729;50.836;4.330;2023-07-13T12:14:19;24.70;96.60
23120;DHT22;11729;50.836;4.330;2023-07-13T12:16:46;24.80;97.10
23120;DHT22;11729;50.836;4.330;2023-07-13T12:19:30;24.80;96.70
23120;DHT22;11729;50.836;4.330;2023-07-13T12:21:58;25.00;96.10
23120;DHT22;11729;50.836;4.330;2023-07-13T12:24:25;25.00;96.70
23120;DHT22;11729;50.836;4.330;2023-07-13T12:27:22;24.90;96.00
23120;DHT22;11729;50.836;4.330;2023-07-13T12:30:15;24.50;97.10
23120;DHT22;11729;50.836;4.330;2023-07-13T12:33:15;23.90;99.90
23120;DHT22;11729;50.836;4.330;2023-07-13T12:35:47;23.30;99.90
23120;DHT22;11729;50.836;4.330;2023-07-13T12:38:16;22.50;99.90
23120;DHT22;11729;50.836;4.330;2023-07-13T12:40:42;22.30;99.90
23120;DHT22;11729;50.836;4.330;2023-07-13T12:43:14;22.10;99.90
23120;DHT22;11729;50.836;4.330;2023-07-13T12:45:55;22.10;99.90
23120;DHT22;11729;50.836;4.330;2023-07-13T12:48:21;22.10;99.90
23120;DHT22;11729;50.836;4.330;2023-07-13T12:50:48;21.90;99.90
23120;DHT22;11729;50.836;4.330;2023-07-13T12:53:19;21.40;99.90
23120;DHT22;11729;50.836;4.330;2023-07-13T12:55:57;21.10;99.90
23120;DHT22;11729;50.836;4.330;2023-07-13T12:58:39;20.90;99.90
23120;DHT22;11729;50.836;4.330;2023-07-13T13:01:07;20.80;99.90
23120;DHT22;11729;50.836;4.330;2023-07-13T13:03:38;20.80;99.90
23120;DHT22;11729;50.836;4.330;2023-07-13T13:08:48;21.30;99.90
23120;DHT22;11729;50.836;4.330;2023-07-13T13:11:18;22.20;99.90
23120;DHT22;11729;50.836;4.330;2023-07-13T13:13:44;23.70;99.90
23120;DHT22;11729;50.836;4.330;2023-07-13T13:16:20;24.40;99.90
23120;DHT22;11729;50.836;4.330;2023-07-13T13:18:48;24.50;99.90
23120;DHT22;11729;50.836;4.330;2023-07-13T13:21:15;24.50;99.90
23120;DHT22;11729;50.836;4.330;2023-07-13T13:23:41;24.60;99.90
23120;DHT22;11729;50.836;4.330;2023-07-13T13:26:11;24.60;99.90
23120;DHT22;11729;50.836;4.330;2023-07-13T13:28:37;24.60;99.90
23120;DHT22;11729;50.836;4.330;2023-07-13T13:31:03;24.80;99.90
23120;DHT22;11729;50.836;4.330;2023-07-13T13:33:28;25.20;99.90
23120;DHT22;11729;50.836;4.330;2023-07-13T13:35:56;26.00;99.90
23120;DHT22;11729;50.836;4.330;2023-07-13T13:38:26;26.50;99.90
23120;DHT22;11729;50.836;4.330;2023-07-13T13:40:52;27.30;99.90
23120;DHT22;11729;50.836;4.330;2023-07-13T13:43:25;27.70;99.90
23120;DHT22;11729;50.836;4.330;2023-07-13T13:45:57;28.00;99.90
23120;DHT22;11729;50.836;4.330;2023-07-13T13:48:34;28.00;99.90
23120;DHT22;11729;50.836;4.330;2023-07-13T13:51:11;27.80;99.90
23120;DHT22;11729;50.836;4.330;2023-07-13T13:53:38;27.50;99.90
23120;DHT22;11729;50.836;4.330;2023-07-13T13:56:04;27.30;99.90
23120;DHT22;11729;50.836;4.330;2023-07-13T13:58:30;27.30;99.90
23120;DHT22;11729;50.836;4.330;2023-07-13T14:00:56;27.20;99.90
23120;DHT22;11729;50.836;4.330;2023-07-13T14:03:24;27.10;99.90
23120;DHT22;11729;50.836;4.330;2023-07-13T14:05:49;27.00;99.90
23120;DHT22;11729;50.836;4.330;2023-07-13T14:08:17;26.70;99.90
23120;DHT22;11729;50.836;4.330;2023-07-13T14:10:48;26.40;99.90
23120;DHT22;11729;50.836;4.330;2023-07-13T14:13:21;26.20;99.90
23120;DHT22;11729;50.836;4.330;2023-07-13T14:15:48;26.10;99.90
23120;DHT22;11729;50.836;4.330;2023-07-13T14:18:14;26.10;99.90
23120;DHT22;11729;50.836;4.330;2023-07-13T14:20:44;25.80;99.90
23120;DHT22;11729;50.836;4.330;2023-07-13T14:23:10;25.60;99.90
23120;DHT22;11729;50.836;4.330;2023-07-13T14:25:36;25.60;99.90
23120;DHT22;11729;50.836;4.330;2023-07-13T14:28:23;25.20;99.90
23120;DHT22;11729;50.836;4.330;2023-07-13T14:30:50;25.00;99.90
23120;DHT22;11729;50.836;4.330;2023-07-13T14:33:16;24.90;99.90
23120;DHT22;11729;50.836;4.330;2023-07-13T14:35:42;24.90;99.90
23120;DHT22;11729;50.836;4.330;2023-07-13T14:38:14;24.90;99.90
23120;DHT22;11729;50.836;4.330;2023-07-13T14:40:41;24.80;99.90
23120;DHT22;11729;50.836;4.330;2023-07-13T14:43:11;24.80;99.90
23120;DHT22;11729;50.836;4.330;2023-07-13T14:45:43;25.00;99.90
23120;DHT22;11729;50.836;4.330;2023-07-13T14:48:29;25.10;99.90
23120;DHT22;11729;50.836;4.330;2023-07-13T14:50:58;25.30;99.90
23120;DHT22;11729;50.836;4.330;2023-07-13T14:53:26;25.60;99.90
23120;DHT22;11729;50.836;4.330;2023-07-13T14:55:55;25.70;99.90
23120;DHT22;11729;50.836;4.330;2023-07-13T14:58:20;25.80;99.90
23120;DHT22;11729;50.836;4.330;2023-07-13T15:00:46;25.70;99.90
23120;DHT22;11729;50.836;4.330;2023-07-13T15:03:21;25.80;99.90
23120;DHT22;11729;50.836;4.330;2023-07-13T15:05:48;25.80;99.90
23120;DHT22;11729;50.836;4.330;2023-07-13T15:08:15;25.80;99.90
23120;DHT22;11729;50.836;4.330;2023-07-13T15:10:40;25.80;99.90
23120;DHT22;11729;50.836;4.330;2023-07-13T15:13:19;25.80;99.90
23120;DHT22;11729;50.836;4.330;2023-07-13T15:15:50;25.40;99.90
23120;DHT22;11729;50.836;4.330;2023-07-13T15:18:20;25.50;99.90
23120;DHT22;11729;50.836;4.330;2023-07-13T15:20:47;25.70;99.90
23120;DHT22;11729;50.836;4.330;2023-07-13T15:23:14;25.90;99.90
23120;DHT22;11729;50.836;4.330;2023-07-13T15:25:41;26.00;99.90
23120;DHT22;11729;50.836;4.330;2023-07-13T15:28:08;26.00;99.90
23120;DHT22;11729;50.836;4.330;2023-07-13T15:30:41;25.80;99.90
23120;DHT22;11729;50.836;4.330;2023-07-13T15:33:17;25.80;99.90
23120;DHT22;11729;50.836;4.330;2023-07-13T15:35:44;25.80;99.90
23120;DHT22;11729;50.836;4.330;2023-07-13T15:38:18;25.60;99.90
23120;DHT22;11729;50.836;4.330;2023-07-13T15:40:44;25.60;99.90
23120;DHT22;11729;50.836;4.330;2023-07-13T15:43:15;25.50;99.90
23120;DHT22;11729;50.836;4.330;2023-07-13T15:45:41;25.50;99.90
23120;DHT22;11729;50.836;4.330;2023-07-13T15:50:45;25.40;99.90
23120;DHT22;11729;50.836;4.330;2023-07-13T15:53:11;25.40;99.90
23120;DHT22;11729;50.836;4.330;2023-07-13T15:55:40;25.60;99.90
23120;DHT22;11729;50.836;4.330;2023-07-13T15:58:11;25.60;99.30
23120;DHT22;11729;50.836;4.330;2023-07-13T16:00:37;25.60;98.90
23120;DHT22;11729;50.836;4.330;2023-07-13T16:03:04;25.60;98.50
23120;DHT22;11729;50.836;4.330;2023-07-13T16:05:30;25.80;97.20
23120;DHT22;11729;50.836;4.330;2023-07-13T16:07:56;25.70;96.20
23120;DHT22;11729;50.836;4.330;2023-07-13T16:10:38;25.70;96.40
23120;DHT22;11729;50.836;4.330;2023-07-13T16:13:14;25.90;95.50
23120;DHT22;11729;50.836;4.330;2023-07-13T16:15:40;25.70;95.30
23120;DHT22;11729;50.836;4.330;2023-07-13T16:18:11;25.70;94.90
23120;DHT22;11729;50.836;4.330;2023-07-13T16:20:45;25.60;95.10
23120;DHT22;11729;50.836;4.330;2023-07-13T16:23:13;25.60;94.40